createdAt,value
2017-05-30T00:00:02.687Z,0
2017-05-30T00:05:02.731Z,0
2017-05-30T00:10:03.249Z,0
2017-05-30T00:15:02.652Z,0
2017-05-30T00:20:03.273Z,0
2017-05-30T00:25:02.902Z,0
2017-05-30T00:30:02.550Z,0
2017-05-30T00:35:03.137Z,0
2017-05-30T00:40:02.668Z,0
2017-05-30T00:45:03.207Z,0
2017-05-30T00:50:02.682Z,0
2017-05-30T00:55:03.138Z,0
2017-05-30T01:00:02.679Z,0
2017-05-30T01:05:03.159Z,0
2017-05-30T01:10:02.610Z,0
2017-05-30T01:15:03.060Z,0
2017-05-30T01:20:02.640Z,0
2017-05-30T01:25:03.270Z,0
2017-05-30T01:30:02.831Z,0
2017-05-30T01:35:02.476Z,0
2017-05-30T01:40:02.958Z,0
2017-05-30T01:45:02.637Z,0
2017-05-30T01:50:03.090Z,0
2017-05-30T01:55:02.590Z,0
2017-05-30T02:00:03.188Z,0
2017-05-30T02:05:02.674Z,0
2017-05-30T02:10:03.240Z,0
2017-05-30T02:15:02.645Z,0
2017-05-30T02:20:03.175Z,0
2017-05-30T02:25:02.719Z,0
2017-05-30T02:30:03.194Z,0
2017-05-30T02:35:02.675Z,0
2017-05-30T02:40:03.273Z,0
2017-05-30T02:45:02.879Z,2
2017-05-30T02:50:03.282Z,2
2017-05-30T02:55:02.741Z,4
2017-05-30T03:00:03.238Z,10
2017-05-30T03:05:02.694Z,20
2017-05-30T03:10:03.344Z,25
2017-05-30T03:15:02.856Z,35
2017-05-30T03:20:03.413Z,44
2017-05-30T03:25:02.965Z,52
2017-05-30T03:30:03.389Z,56
2017-05-30T03:35:02.995Z,58
2017-05-30T03:40:02.687Z,87
2017-05-30T03:45:03.296Z,141
2017-05-30T03:50:02.702Z,477
2017-05-30T03:55:03.295Z,444
2017-05-30T04:00:02.685Z,489
2017-05-30T04:05:03.163Z,457
2017-05-30T04:10:02.652Z,561
2017-05-30T04:15:03.161Z,835
2017-05-30T04:20:02.588Z,749
2017-05-30T04:25:03.070Z,618
2017-05-30T04:30:03.308Z,799
2017-05-30T04:35:02.771Z,933
2017-05-30T04:40:03.220Z,1000
2017-05-30T04:55:02.783Z,1000
2017-05-30T05:00:03.425Z,2000
2017-05-30T05:10:02.569Z,2000
2017-05-30T05:15:03.032Z,3000
2017-05-30T05:20:02.665Z,2000
2017-05-30T05:25:03.166Z,2000
2017-05-30T05:30:02.660Z,2000
2017-05-30T05:35:03.298Z,3000
2017-05-30T05:40:02.955Z,4000
2017-05-30T05:45:03.417Z,4000
2017-05-30T05:50:02.778Z,5000
2017-05-30T05:55:03.384Z,5000
2017-05-30T06:00:02.917Z,5000
2017-05-30T06:05:02.412Z,5000
2017-05-30T06:10:02.932Z,5000
2017-05-30T06:15:02.567Z,6000
2017-05-30T06:20:03.047Z,5000
2017-05-30T06:25:02.464Z,5000
2017-05-30T06:30:03.109Z,6000
2017-05-30T06:35:02.717Z,8000
2017-05-30T06:40:03.378Z,10000
2017-05-30T06:45:02.891Z,11000
2017-05-30T06:50:03.371Z,8000
2017-05-30T06:55:02.846Z,8000
2017-05-30T07:00:03.403Z,11000
2017-05-30T07:05:02.819Z,11000
2017-05-30T07:10:02.490Z,8000
2017-05-30T07:15:02.883Z,9000
2017-05-30T07:20:03.329Z,10000
2017-05-30T07:25:02.735Z,8000
2017-05-30T07:30:03.185Z,10000
2017-05-30T07:35:02.638Z,9000
2017-05-30T07:40:03.378Z,10000
2017-05-30T07:45:02.799Z,8000
2017-05-30T07:50:03.348Z,32000
2017-05-30T07:55:02.896Z,12000
2017-05-30T08:00:03.296Z,11000
2017-05-30T08:05:02.930Z,11000
2017-05-30T08:10:02.571Z,17000
2017-05-30T08:15:03.147Z,37000
2017-05-30T08:20:02.781Z,41000
2017-05-30T08:25:02.522Z,43000
2017-05-30T08:30:03.135Z,41000
2017-05-30T08:35:02.718Z,20000
2017-05-30T08:40:02.462Z,19000
2017-05-30T08:45:03.165Z,12000
2017-05-30T08:50:03.190Z,33000
2017-05-30T08:55:03.000Z,9000
2017-05-30T09:00:02.592Z,33000
2017-05-30T09:05:03.332Z,10000
2017-05-30T09:10:03.415Z,9000
2017-05-30T09:15:02.660Z,51000
2017-05-30T09:20:03.200Z,13000
2017-05-30T09:25:02.589Z,25000
2017-05-30T09:30:02.675Z,55000
2017-05-30T09:35:02.997Z,46000
2017-05-30T09:40:03.317Z,40000
2017-05-30T09:45:02.862Z,20000
2017-05-30T09:50:02.499Z,11000
2017-05-30T09:55:02.491Z,20000
2017-05-30T10:00:02.547Z,52000
2017-05-30T10:05:02.920Z,51000
2017-05-30T10:10:03.173Z,16000
2017-05-30T10:15:02.710Z,11000
2017-05-30T10:20:03.088Z,12000
2017-05-30T10:25:02.436Z,7000
2017-05-30T10:30:02.504Z,10000
2017-05-30T10:35:02.653Z,16000
2017-05-30T10:40:03.149Z,21000
2017-05-30T10:45:02.554Z,32000
2017-05-30T10:50:02.625Z,54000
2017-05-30T10:55:03.017Z,12000
2017-05-30T11:00:03.361Z,12000
2017-05-30T11:05:03.220Z,43000
2017-05-30T11:10:02.579Z,24000
2017-05-30T11:15:03.245Z,20000
2017-05-30T11:20:02.698Z,10000
2017-05-30T11:25:02.540Z,10000
2017-05-30T11:30:02.861Z,33000
2017-05-30T11:35:03.099Z,54000
2017-05-30T11:40:02.579Z,54000
2017-05-30T11:45:02.848Z,32000
2017-05-30T11:50:03.230Z,27000
2017-05-30T11:55:03.210Z,41000
2017-05-30T12:00:02.524Z,13000
2017-05-30T12:05:03.116Z,39000
2017-05-30T12:10:02.531Z,27000
2017-05-30T12:15:02.864Z,19000
2017-05-30T12:20:03.249Z,50000
2017-05-30T12:25:02.588Z,40000
2017-05-30T12:30:03.043Z,48000
2017-05-30T12:35:02.562Z,48000
2017-05-30T12:40:02.967Z,27000
2017-05-30T12:45:03.276Z,30000
2017-05-30T12:50:02.926Z,11000
2017-05-30T12:55:03.139Z,12000
2017-05-30T13:00:02.485Z,7000
2017-05-30T13:05:03.108Z,7000
2017-05-30T13:10:02.612Z,13000
2017-05-30T13:15:03.162Z,43000
2017-05-30T13:20:02.453Z,36000
2017-05-30T13:25:02.906Z,27000
2017-05-30T13:30:03.309Z,15000
2017-05-30T13:35:02.799Z,15000
2017-05-30T13:40:03.236Z,8000
2017-05-30T13:45:02.897Z,25000
2017-05-30T13:50:02.568Z,17000
2017-05-30T13:55:02.895Z,8000
2017-05-30T14:00:03.302Z,30000
2017-05-30T14:05:03.071Z,7000
2017-05-30T14:10:02.615Z,9000
2017-05-30T14:15:03.204Z,31000
2017-05-30T14:20:02.789Z,30000
2017-05-30T14:25:03.240Z,32000
2017-05-30T14:30:02.777Z,7000
2017-05-30T14:35:03.285Z,30000
2017-05-30T14:40:02.774Z,7000
2017-05-30T14:45:03.295Z,6000
2017-05-30T14:50:02.768Z,13000
2017-05-30T14:55:03.328Z,9000
2017-05-30T15:00:02.875Z,13000
2017-05-30T15:05:03.332Z,27000
2017-05-30T15:10:02.893Z,22000
2017-05-30T15:15:02.441Z,7000
2017-05-30T15:20:02.921Z,11000
2017-05-30T15:25:03.365Z,5000
2017-05-30T15:30:02.812Z,8000
2017-05-30T15:35:03.402Z,15000
2017-05-30T15:40:03.009Z,11000
2017-05-30T15:45:02.633Z,12000
2017-05-30T15:50:03.400Z,18000
2017-05-30T15:55:02.760Z,18000
2017-05-30T16:00:03.168Z,18000
2017-05-30T16:05:02.567Z,17000
2017-05-30T16:10:03.030Z,18000
2017-05-30T16:15:02.525Z,13000
2017-05-30T16:20:03.064Z,13000
2017-05-30T16:25:02.519Z,5000
2017-05-30T16:30:02.967Z,4000
2017-05-30T16:35:03.331Z,5000
2017-05-30T16:40:02.954Z,3000
2017-05-30T16:45:02.560Z,3000
2017-05-30T16:50:03.179Z,3000
2017-05-30T16:55:02.622Z,4000
2017-05-30T17:00:02.970Z,4000
2017-05-30T17:05:03.214Z,6000
2017-05-30T17:10:02.827Z,9000
2017-05-30T17:15:03.273Z,4000
2017-05-30T17:20:02.769Z,9000
2017-05-30T17:25:03.295Z,10000
2017-05-30T17:30:02.923Z,9000
2017-05-30T17:35:03.323Z,7000
2017-05-30T17:40:02.857Z,8000
2017-05-30T17:45:03.335Z,7000
2017-05-30T17:50:02.722Z,6000
2017-05-30T17:55:03.175Z,1000
2017-05-30T18:00:02.841Z,1000
2017-05-30T18:05:02.857Z,1000
2017-05-30T18:10:02.454Z,2000
2017-05-30T18:15:02.943Z,2000
2017-05-30T18:20:02.516Z,1000
2017-05-30T18:25:03.013Z,1000
2017-05-30T18:30:02.478Z,1000
2017-05-30T18:35:02.965Z,1000
2017-05-30T18:40:02.571Z,1000
2017-05-30T18:45:03.089Z,749
2017-05-30T18:50:02.634Z,844
2017-05-30T18:55:03.249Z,701
2017-05-30T19:00:02.515Z,641
2017-05-30T19:05:02.998Z,655
2017-05-30T19:10:03.424Z,655
2017-05-30T19:15:03.003Z,626
2017-05-30T19:20:03.285Z,496
2017-05-30T19:25:02.690Z,365
2017-05-30T19:30:03.061Z,295
2017-05-30T19:35:03.270Z,200
2017-05-30T19:40:02.700Z,81
2017-05-30T19:45:03.017Z,68
2017-05-30T19:50:03.379Z,58
2017-05-30T19:55:02.623Z,42
2017-05-30T20:00:02.997Z,29
2017-05-30T20:05:03.149Z,22
2017-05-30T20:10:02.580Z,10
2017-05-30T20:15:03.097Z,4
2017-05-30T20:20:03.356Z,2
2017-05-30T20:25:02.813Z,1
2017-05-30T20:30:03.250Z,0
2017-05-30T20:35:02.623Z,0
2017-05-30T20:40:03.122Z,0
2017-05-30T20:45:02.594Z,0
2017-05-30T20:50:03.063Z,0
2017-05-30T20:55:02.423Z,0
2017-05-30T21:00:03.014Z,0
2017-05-30T21:05:02.557Z,0
2017-05-30T21:10:02.726Z,0
2017-05-30T21:15:03.178Z,0
2017-05-30T21:20:02.549Z,0
2017-05-30T21:25:02.906Z,0
2017-05-30T21:30:02.453Z,0
2017-05-30T21:35:02.713Z,0
2017-05-30T21:40:03.151Z,0
2017-05-30T21:45:03.271Z,0
2017-05-30T21:50:03.159Z,0
2017-05-30T21:55:02.652Z,0
2017-05-30T22:00:02.870Z,0
2017-05-30T22:05:03.356Z,0
2017-05-30T22:10:02.859Z,0
2017-05-30T22:15:02.438Z,0
2017-05-30T22:20:02.534Z,0
2017-05-30T22:25:02.737Z,0
2017-05-30T22:30:03.080Z,0
2017-05-30T22:35:03.178Z,0
2017-05-30T22:40:02.547Z,0
2017-05-30T22:45:02.465Z,0
2017-05-30T22:50:03.373Z,0
2017-05-30T22:55:03.242Z,0
2017-05-30T23:00:02.833Z,0
2017-05-30T23:05:03.384Z,0
2017-05-30T23:10:03.176Z,0
2017-05-30T23:15:02.769Z,0
2017-05-30T23:20:03.228Z,0
2017-05-30T23:25:02.745Z,0
2017-05-30T23:30:03.410Z,0
2017-05-30T23:35:02.985Z,0
2017-05-30T23:40:02.435Z,0
2017-05-30T23:45:02.985Z,0
2017-05-30T23:50:02.973Z,0
2017-05-30T23:55:02.709Z,0
